Irini — SYZA — position and weather

sailwx.info

Track history (hours):
 
Tides and Currents Weather Stations Pressure Air Temp Water Temp Dewpoint Dewpoint Depression Visibility Wind Speed Wind Dir Waves Ship Positions

Irini

Last reported at 2015-Jan-29 03:33 UTC. Time now 2015-Jan-29 04:23 UTC.
Position N 37°40' E 023°47'.

Length 137 m; draft 7.4 m.

Type: Ship (hazmat cat A). MMSI: 240052000.

Date/timePositionNaut miles runAvg speedWind from/ knotsBaromVisibWave heightAir tempDewpointWater temp
2015-Jan-29 03:33N 37°40' E 023°47'3310.5
2015-Jan-29 00:24N 37°51' E 024°27'  
2015-Jan-23 16:23N 37°36' E 023°57'910.7
2015-Jan-23 15:33N 37°39' E 023°46'9 9.4
2015-Jan-23 14:33N 37°46' E 023°39'10 9.7
2015-Jan-23 13:34N 37°56' E 023°36'6 5.7
2015-Jan-23 12:34N 38°01' E 023°35'0 0.0
2015-Jan-22 11:30N 38°02' E 023°36'3 3.1
2015-Jan-22 10:30N 38°02' E 023°32'0 0.0
2015-Jan-22 09:33N 38°02' E 023°32'0 0.0
2015-Jan-22 08:33N 38°02' E 023°32'0 0.0
2015-Jan-22 07:33N 38°02' E 023°31'0 0.0
2015-Jan-22 06:30N 38°02' E 023°32'0 0.0
2015-Jan-22 05:28N 38°02' E 023°32'0 0.0
2015-Jan-22 04:27N 38°02' E 023°32'0 0.0
2015-Jan-22 03:33N 38°02' E 023°32'0 0.0
2015-Jan-22 02:30N 38°02' E 023°32'0 0.0
2015-Jan-22 01:33N 38°02' E 023°31'0 0.0
2015-Jan-22 00:33N 38°02' E 023°32'0 0.0
2015-Jan-21 23:33N 38°02' E 023°32'0 0.0
2015-Jan-21 22:45N 38°02' E 023°32'0 0.0
2015-Jan-21 22:33N 38°02' E 023°32'0 0.0
2015-Jan-21 21:33N 38°02' E 023°32'0 0.0
2015-Jan-21 20:33N 38°02' E 023°32'0 0.0
2015-Jan-21 19:33N 38°02' E 023°32'0 0.0
2015-Jan-21 18:33N 38°02' E 023°32'0 0.0
2015-Jan-21 17:33N 38°02' E 023°32'0 0.1
2015-Jan-21 16:33N 38°02' E 023°32'0 0.1
2015-Jan-21 15:33N 38°02' E 023°32'0 0.0
2015-Jan-21 14:33N 38°02' E 023°32'0 0.1
2015-Jan-21 13:33N 38°02' E 023°32'0 0.0
2015-Jan-21 12:33N 38°02' E 023°32'0 0.0
2015-Jan-21 11:30N 38°02' E 023°32'0 0.0
2015-Jan-21 10:33N 38°02' E 023°32'0 0.0
2015-Jan-21 09:33N 38°02' E 023°32'0 0.1
2015-Jan-21 08:33N 38°02' E 023°32'1 0.8
2015-Jan-21 07:29N 38°02' E 023°31'0 0.0
2015-Jan-21 06:29N 38°02' E 023°31'0 0.0
2015-Jan-21 05:29N 38°02' E 023°31'0 0.0
2015-Jan-21 04:29N 38°02' E 023°31'0 0.0
2015-Jan-21 03:29N 38°02' E 023°31'0 0.0
2015-Jan-21 02:29N 38°02' E 023°31'0 0.0
2015-Jan-21 01:23N 38°02' E 023°31'0 0.0
2015-Jan-21 00:29N 38°02' E 023°31'0 0.0
2015-Jan-20 23:29N 38°02' E 023°31'0 0.0
2015-Jan-20 22:29N 38°02' E 023°31'0 0.0
2015-Jan-20 21:23N 38°02' E 023°31'0 0.0
2015-Jan-20 20:29N 38°02' E 023°31'0 0.0
2015-Jan-20 19:29N 38°02' E 023°31'0 0.0
2015-Jan-20 18:24N 38°02' E 023°31'1 0.8
2015-Jan-20 17:33N 38°02' E 023°31'0 0.2
2015-Jan-20 16:33N 38°02' E 023°31'0 0.0
2015-Jan-20 15:33N 38°02' E 023°31'0 0.0
2015-Jan-20 14:33N 38°02' E 023°31'0 0.0
2015-Jan-20 13:33N 38°02' E 023°31'0 0.0
2015-Jan-20 12:33N 38°02' E 023°31'0 0.0
2015-Jan-20 11:33N 38°02' E 023°31'0 0.0
2015-Jan-20 10:34N 38°02' E 023°31'0 0.0
2015-Jan-20 09:33N 38°02' E 023°31'0 0.1
2015-Jan-20 08:33N 38°02' E 023°31'0 0.0
2015-Jan-20 07:33N 38°02' E 023°31'0 0.0
2015-Jan-20 06:33N 38°02' E 023°31'0 0.0
2015-Jan-20 05:27N 38°02' E 023°31'0 0.0
2015-Jan-20 04:33N 38°02' E 023°31'0 0.0
2015-Jan-20 03:28N 38°02' E 023°31'0 0.0
2015-Jan-20 02:34N 38°02' E 023°31'0 0.0
2015-Jan-20 01:28N 38°02' E 023°31'0 0.0
2015-Jan-20 00:34N 38°02' E 023°31'0 0.0
2015-Jan-19 23:33N 38°02' E 023°31'0 0.0
2015-Jan-19 22:33N 38°02' E 023°31'1 0.7
2015-Jan-19 21:32N 38°02' E 023°31'0 0.0
2015-Jan-19 20:32N 38°02' E 023°31'0 0.0
2015-Jan-19 19:32N 38°02' E 023°31'0 0.0
2015-Jan-19 18:32N 38°02' E 023°31'0 0.0
2015-Jan-19 17:32N 38°02' E 023°31'0 0.0
2015-Jan-19 16:32N 38°02' E 023°31'0 0.0
2015-Jan-19 15:32N 38°02' E 023°31'0 0.0
2015-Jan-19 14:32N 38°02' E 023°31'0 0.0
2015-Jan-19 13:32N 38°02' E 023°31'0 0.0
2015-Jan-19 12:32N 38°02' E 023°31'0 0.0
2015-Jan-19 11:32N 38°02' E 023°31'0 0.0
2015-Jan-19 10:32N 38°02' E 023°31'0 0.0
2015-Jan-19 09:32N 38°02' E 023°31'0 0.0
2015-Jan-19 08:26N 38°02' E 023°31'0 0.1
2015-Jan-19 07:34N 38°02' E 023°31'6 5.7
2015-Jan-19 06:33N 37°57' E 023°34'3 3.2
2015-Jan-19 05:33N 37°54' E 023°36'7 7.2
2015-Jan-19 04:33N 37°48' E 023°40'  
Track history (hours):
 
Tides and Currents Weather Stations Pressure Air Temp Water Temp Dewpoint Dewpoint Depression Visibility Wind Speed Wind Dir Waves Ship Positions

Irini

Last reported at 2015-Jan-29 03:33 UTC. Time now 2015-Jan-29 04:23 UTC.
Position N 37°40' E 023°47'.

Length 137 m; draft 7.4 m.

Type: Ship (hazmat cat A). MMSI: 240052000.

Date/timePositionNaut miles runAvg speedWind from/ knotsBaromVisibWave heightAir tempDewpointWater temp
2015-Jan-29 03:33N 37°40' E 023°47'3310.5
2015-Jan-29 00:24N 37°51' E 024°27'  
2015-Jan-23 16:23N 37°36' E 023°57'910.7
2015-Jan-23 15:33N 37°39' E 023°46'9 9.4
2015-Jan-23 14:33N 37°46' E 023°39'10 9.7
2015-Jan-23 13:34N 37°56' E 023°36'6 5.7
2015-Jan-23 12:34N 38°01' E 023°35'0 0.0
2015-Jan-22 11:30N 38°02' E 023°36'3 3.1
2015-Jan-22 10:30N 38°02' E 023°32'0 0.0
2015-Jan-22 09:33N 38°02' E 023°32'0 0.0
2015-Jan-22 08:33N 38°02' E 023°32'0 0.0
2015-Jan-22 07:33N 38°02' E 023°31'0 0.0
2015-Jan-22 06:30N 38°02' E 023°32'0 0.0
2015-Jan-22 05:28N 38°02' E 023°32'0 0.0
2015-Jan-22 04:27N 38°02' E 023°32'0 0.0
2015-Jan-22 03:33N 38°02' E 023°32'0 0.0
2015-Jan-22 02:30N 38°02' E 023°32'0 0.0
2015-Jan-22 01:33N 38°02' E 023°31'0 0.0
2015-Jan-22 00:33N 38°02' E 023°32'0 0.0
2015-Jan-21 23:33N 38°02' E 023°32'0 0.0
2015-Jan-21 22:45N 38°02' E 023°32'0 0.0
2015-Jan-21 22:33N 38°02' E 023°32'0 0.0
2015-Jan-21 21:33N 38°02' E 023°32'0 0.0
2015-Jan-21 20:33N 38°02' E 023°32'0 0.0
2015-Jan-21 19:33N 38°02' E 023°32'0 0.0
2015-Jan-21 18:33N 38°02' E 023°32'0 0.0
2015-Jan-21 17:33N 38°02' E 023°32'0 0.1
2015-Jan-21 16:33N 38°02' E 023°32'0 0.1
2015-Jan-21 15:33N 38°02' E 023°32'0 0.0
2015-Jan-21 14:33N 38°02' E 023°32'0 0.1
2015-Jan-21 13:33N 38°02' E 023°32'0 0.0
2015-Jan-21 12:33N 38°02' E 023°32'0 0.0
2015-Jan-21 11:30N 38°02' E 023°32'0 0.0
2015-Jan-21 10:33N 38°02' E 023°32'0 0.0
2015-Jan-21 09:33N 38°02' E 023°32'0 0.1
2015-Jan-21 08:33N 38°02' E 023°32'1 0.8
2015-Jan-21 07:29N 38°02' E 023°31'0 0.0
2015-Jan-21 06:29N 38°02' E 023°31'0 0.0
2015-Jan-21 05:29N 38°02' E 023°31'0 0.0
2015-Jan-21 04:29N 38°02' E 023°31'0 0.0
2015-Jan-21 03:29N 38°02' E 023°31'0 0.0
2015-Jan-21 02:29N 38°02' E 023°31'0 0.0
2015-Jan-21 01:23N 38°02' E 023°31'0 0.0
2015-Jan-21 00:29N 38°02' E 023°31'0 0.0
2015-Jan-20 23:29N 38°02' E 023°31'0 0.0
2015-Jan-20 22:29N 38°02' E 023°31'0 0.0
2015-Jan-20 21:23N 38°02' E 023°31'0 0.0
2015-Jan-20 20:29N 38°02' E 023°31'0 0.0
2015-Jan-20 19:29N 38°02' E 023°31'0 0.0
2015-Jan-20 18:24N 38°02' E 023°31'1 0.8
2015-Jan-20 17:33N 38°02' E 023°31'0 0.2
2015-Jan-20 16:33N 38°02' E 023°31'0 0.0
2015-Jan-20 15:33N 38°02' E 023°31'0 0.0
2015-Jan-20 14:33N 38°02' E 023°31'0 0.0
2015-Jan-20 13:33N 38°02' E 023°31'0 0.0
2015-Jan-20 12:33N 38°02' E 023°31'0 0.0
2015-Jan-20 11:33N 38°02' E 023°31'0 0.0
2015-Jan-20 10:34N 38°02' E 023°31'0 0.0
2015-Jan-20 09:33N 38°02' E 023°31'0 0.1
2015-Jan-20 08:33N 38°02' E 023°31'0 0.0
2015-Jan-20 07:33N 38°02' E 023°31'0 0.0
2015-Jan-20 06:33N 38°02' E 023°31'0 0.0
2015-Jan-20 05:27N 38°02' E 023°31'0 0.0
2015-Jan-20 04:33N 38°02' E 023°31'0 0.0
2015-Jan-20 03:28N 38°02' E 023°31'0 0.0
2015-Jan-20 02:34N 38°02' E 023°31'0 0.0
2015-Jan-20 01:28N 38°02' E 023°31'0 0.0
2015-Jan-20 00:34N 38°02' E 023°31'0 0.0
2015-Jan-19 23:33N 38°02' E 023°31'0 0.0
2015-Jan-19 22:33N 38°02' E 023°31'1 0.7
2015-Jan-19 21:32N 38°02' E 023°31'0 0.0
2015-Jan-19 20:32N 38°02' E 023°31'0 0.0
2015-Jan-19 19:32N 38°02' E 023°31'0 0.0
2015-Jan-19 18:32N 38°02' E 023°31'0 0.0
2015-Jan-19 17:32N 38°02' E 023°31'0 0.0
2015-Jan-19 16:32N 38°02' E 023°31'0 0.0
2015-Jan-19 15:32N 38°02' E 023°31'0 0.0
2015-Jan-19 14:32N 38°02' E 023°31'0 0.0
2015-Jan-19 13:32N 38°02' E 023°31'0 0.0
2015-Jan-19 12:32N 38°02' E 023°31'0 0.0
2015-Jan-19 11:32N 38°02' E 023°31'0 0.0
2015-Jan-19 10:32N 38°02' E 023°31'0 0.0
2015-Jan-19 09:32N 38°02' E 023°31'0 0.0
2015-Jan-19 08:26N 38°02' E 023°31'0 0.1
2015-Jan-19 07:34N 38°02' E 023°31'6 5.7
2015-Jan-19 06:33N 37°57' E 023°34'3 3.2
2015-Jan-19 05:33N 37°54' E 023°36'7 7.2
2015-Jan-19 04:33N 37°48' E 023°40'  

Dump ship's entire track history